ASN logo
Accident
Last updated: 19 October 2017
Estado:Final
Fecha:sábado 13 octubre 2012
Hora:18:52
Tipo:Silhouette image of generic MD11 model; specific model in this crash may look slightly different
McDonnell Douglas MD-11F
Operador:Centurion Air Cargo
Registración: N988AR
Numéro de série: 48434/476
Año de Construcción: 1991
Motores: 3 General Electric CF6-80C2D1F
Tripulación:Fatalidades: 0 / Ocupantes: 3
Pasajeros:Fatalidades: 0 / Ocupantes: 0
Total:Fatalidades: 0 / Ocupantes: 3
Daños en la Aeronave: Anulado
Consecuencias: Written off (damaged beyond repair)
Ubicación:São Paulo/Campinas-Viracopos International Airport, SP (VCP) (   Brasil)
Fase: Aterrizaje (LDG)
Naturaleza:Carga
Aeropuerto de Salida:Miami International Airport, FL (MIA/KMIA), Estados Unidos de América
Aeropuerto de Llegada:São Paulo/Campinas-Viracopos International Airport, SP (VCP/SBKP), Brasil
Número de Vuelo:WE425
Descripción:
An McDonnell Douglas MD-11F cargo plane, operated by Centurion Air Cargo, sustained substantial damage in a landing accident at São Paulo/Campinas-Viracopos International Airport, SP (VCP), Brazil.
Flight WE425 operated on a cargo flight from Miami International Airport, FL (MIA), USA. The flight crew performed the IFR ILS Z procedure for runway 15 at Viracopos Airport. The prevailing weather conditions were VMC. The wind was 140 degrees / 19kt. When the aircraft was cleared to land, the wind strength was 20kt, with peak gusts at 29kt. Upon touchdown there was total collapse of the left main landing gear and the aircraft skidded along the runway for 800 meters before the final stop, sustaining damage to the left landing gear, left wing, and left engine.

This same MD-11 was involved in an accident on October 20, 2009 when the right hand main landing gear leg was bent sideways during landing at Montevideo-Carrasco Airport (MVD), Uruguay.

Probable Cause:

Contributing factors.
- Aircraft maintenance - undetermined.
In the tasks that led to the restoration of the aircraft airworthiness after the accident in Uruguay in 2009 (Hard-Landing), and also in subsequent periodic inspections, the existence of pre-crack traces resulting from a previous overload condition may not have been identified, something that could have resulted in a point of stress concentration.

Accident investigation:
cover
Investigating agency: CENIPA
Status: Investigation completed
Duration: 3 years and 6 months
Accident number: A-501/CENIPA/2015
Download report: Final report

Fuentes:
» RAC.com.br
» Scramble 403

METAR Weather report:
20:00 UTC / 17:00 local time:
SBKP - 132000Z 13020KT 9999 FEW025 SCT030 BKN090 19/14 Q1020

21:00 UTC / 18:00 local time:
SBKP - 132100Z 14018KT 9999 FEW018 SCT030 BKN090 18/14 Q1020

22:00 UTC / 19:00 local time:
SBKP - 132200Z 13018G31KT 9999 FEW018 SCT045 BKN090 18/13 Q1020


Fotos

photo of McDonnell Douglas MD-11F N988AR
Add your photo of this accident or aircraft
 

Video, social media

Map
This map shows the airport of departure and the intended destination of the flight. The line between the airports does not display the exact flight path.
Distance from Miami International Airport, FL to São Paulo/Campinas-Viracopos International Airport, SP as the crow flies is 6456 km (4035 miles).

This information is not presented as the Flight Safety Foundation or the Aviation Safety Network’s opinion as to the cause of the accident. It is preliminary and is based on the facts as they are known at this time.
languages: languages

Share

MD-11

  • 200 built
  • 9th loss
» safety profile